sensor_id;sensor_type;location;lat;lon;timestamp;temperature;humidity
30764;DHT22;17497;51.476;7.770;2023-04-06T00:02:09;2.80;99.90
30764;DHT22;17497;51.476;7.770;2023-04-06T00:04:36;2.90;99.90
30764;DHT22;17497;51.476;7.770;2023-04-06T00:07:03;2.90;99.90
30764;DHT22;17497;51.476;7.770;2023-04-06T00:09:29;2.90;99.90
30764;DHT22;17497;51.476;7.770;2023-04-06T00:11:56;2.90;99.90
30764;DHT22;17497;51.476;7.770;2023-04-06T00:14:24;2.90;99.90
30764;DHT22;17497;51.476;7.770;2023-04-06T00:16:50;2.90;99.90
30764;DHT22;17497;51.476;7.770;2023-04-06T00:19:17;2.90;99.90
30764;DHT22;17497;51.476;7.770;2023-04-06T00:21:44;2.90;99.90
30764;DHT22;17497;51.476;7.770;2023-04-06T00:24:11;2.80;99.90
30764;DHT22;17497;51.476;7.770;2023-04-06T00:26:37;2.80;99.90
30764;DHT22;17497;51.476;7.770;2023-04-06T00:29:04;2.80;99.90
30764;DHT22;17497;51.476;7.770;2023-04-06T00:31:30;2.70;99.90
30764;DHT22;17497;51.476;7.770;2023-04-06T00:33:57;2.70;99.90
30764;DHT22;17497;51.476;7.770;2023-04-06T00:36:24;2.70;99.90
30764;DHT22;17497;51.476;7.770;2023-04-06T00:38:52;2.70;99.90
30764;DHT22;17497;51.476;7.770;2023-04-06T00:41:18;2.70;99.90
30764;DHT22;17497;51.476;7.770;2023-04-06T00:43:47;2.80;99.90
30764;DHT22;17497;51.476;7.770;2023-04-06T00:46:14;2.80;99.90
30764;DHT22;17497;51.476;7.770;2023-04-06T00:48:40;2.80;99.90
30764;DHT22;17497;51.476;7.770;2023-04-06T00:51:07;2.80;99.90
30764;DHT22;17497;51.476;7.770;2023-04-06T00:53:34;2.80;99.90
30764;DHT22;17497;51.476;7.770;2023-04-06T00:56:01;2.90;99.90
30764;DHT22;17497;51.476;7.770;2023-04-06T00:58:27;2.90;99.90
30764;DHT22;17497;51.476;7.770;2023-04-06T01:00:54;2.80;99.90
30764;DHT22;17497;51.476;7.770;2023-04-06T01:03:21;2.90;99.90
30764;DHT22;17497;51.476;7.770;2023-04-06T01:05:47;2.90;99.90
30764;DHT22;17497;51.476;7.770;2023-04-06T01:08:14;2.90;99.90
30764;DHT22;17497;51.476;7.770;2023-04-06T01:10:41;2.80;99.90
30764;DHT22;17497;51.476;7.770;2023-04-06T01:13:08;2.90;99.90
30764;DHT22;17497;51.476;7.770;2023-04-06T01:15:34;3.00;99.90
30764;DHT22;17497;51.476;7.770;2023-04-06T01:18:01;3.00;99.90
30764;DHT22;17497;51.476;7.770;2023-04-06T01:20:29;3.00;99.90
30764;DHT22;17497;51.476;7.770;2023-04-06T01:22:56;3.00;99.90
30764;DHT22;17497;51.476;7.770;2023-04-06T01:25:23;3.00;99.90
30764;DHT22;17497;51.476;7.770;2023-04-06T01:27:50;3.00;99.90
30764;DHT22;17497;51.476;7.770;2023-04-06T01:30:16;3.00;99.90
30764;DHT22;17497;51.476;7.770;2023-04-06T01:32:43;2.90;99.90
30764;DHT22;17497;51.476;7.770;2023-04-06T01:35:11;3.00;99.90
30764;DHT22;17497;51.476;7.770;2023-04-06T01:37:37;3.00;99.90
30764;DHT22;17497;51.476;7.770;2023-04-06T01:40:04;3.00;99.90
30764;DHT22;17497;51.476;7.770;2023-04-06T01:42:31;2.90;99.90
30764;DHT22;17497;51.476;7.770;2023-04-06T01:44:58;2.90;99.90
30764;DHT22;17497;51.476;7.770;2023-04-06T01:47:24;2.90;99.90
30764;DHT22;17497;51.476;7.770;2023-04-06T01:49:51;3.00;99.90
30764;DHT22;17497;51.476;7.770;2023-04-06T01:52:18;2.90;99.90
30764;DHT22;17497;51.476;7.770;2023-04-06T01:54:45;2.90;99.90
30764;DHT22;17497;51.476;7.770;2023-04-06T01:57:11;3.00;99.90
30764;DHT22;17497;51.476;7.770;2023-04-06T01:59:38;2.90;99.90
30764;DHT22;17497;51.476;7.770;2023-04-06T02:02:05;2.90;99.90
30764;DHT22;17497;51.476;7.770;2023-04-06T02:04:31;2.90;99.90
30764;DHT22;17497;51.476;7.770;2023-04-06T02:06:58;2.90;99.90
30764;DHT22;17497;51.476;7.770;2023-04-06T02:09:25;2.90;99.90
30764;DHT22;17497;51.476;7.770;2023-04-06T02:11:52;2.80;99.90
30764;DHT22;17497;51.476;7.770;2023-04-06T02:14:18;2.80;99.90
30764;DHT22;17497;51.476;7.770;2023-04-06T02:16:45;2.80;99.90
30764;DHT22;17497;51.476;7.770;2023-04-06T02:19:14;2.80;99.90
30764;DHT22;17497;51.476;7.770;2023-04-06T02:21:41;2.80;99.90
30764;DHT22;17497;51.476;7.770;2023-04-06T02:24:07;2.80;99.90
30764;DHT22;17497;51.476;7.770;2023-04-06T02:26:34;2.70;99.90
30764;DHT22;17497;51.476;7.770;2023-04-06T02:29:01;2.70;99.90
30764;DHT22;17497;51.476;7.770;2023-04-06T02:31:28;2.70;99.90
30764;DHT22;17497;51.476;7.770;2023-04-06T02:33:55;2.70;99.90
30764;DHT22;17497;51.476;7.770;2023-04-06T02:36:22;2.60;99.90
30764;DHT22;17497;51.476;7.770;2023-04-06T02:38:50;2.70;99.90
30764;DHT22;17497;51.476;7.770;2023-04-06T02:41:18;2.60;99.90
30764;DHT22;17497;51.476;7.770;2023-04-06T02:43:47;2.70;99.90
30764;DHT22;17497;51.476;7.770;2023-04-06T02:46:13;2.70;99.90
30764;DHT22;17497;51.476;7.770;2023-04-06T02:48:40;2.70;99.90
30764;DHT22;17497;51.476;7.770;2023-04-06T02:51:07;2.70;99.90
30764;DHT22;17497;51.476;7.770;2023-04-06T02:53:33;2.80;99.90
30764;DHT22;17497;51.476;7.770;2023-04-06T02:56:01;2.80;99.90
30764;DHT22;17497;51.476;7.770;2023-04-06T02:58:28;2.80;99.90
30764;DHT22;17497;51.476;7.770;2023-04-06T03:00:56;2.70;99.90
30764;DHT22;17497;51.476;7.770;2023-04-06T03:03:22;2.70;99.90
30764;DHT22;17497;51.476;7.770;2023-04-06T03:05:49;2.70;99.90
30764;DHT22;17497;51.476;7.770;2023-04-06T03:08:16;2.60;99.90
30764;DHT22;17497;51.476;7.770;2023-04-06T03:10:43;2.60;99.90
30764;DHT22;17497;51.476;7.770;2023-04-06T03:13:09;2.50;99.90
30764;DHT22;17497;51.476;7.770;2023-04-06T03:15:36;2.50;99.90
30764;DHT22;17497;51.476;7.770;2023-04-06T03:18:03;2.40;99.90
30764;DHT22;17497;51.476;7.770;2023-04-06T03:20:30;2.40;99.90
30764;DHT22;17497;51.476;7.770;2023-04-06T03:22:56;2.30;99.90
30764;DHT22;17497;51.476;7.770;2023-04-06T03:25:23;2.30;99.90
30764;DHT22;17497;51.476;7.770;2023-04-06T03:27:49;2.30;99.90
30764;DHT22;17497;51.476;7.770;2023-04-06T03:30:16;2.20;99.90
30764;DHT22;17497;51.476;7.770;2023-04-06T03:32:44;2.20;99.90
30764;DHT22;17497;51.476;7.770;2023-04-06T03:35:11;2.20;99.90
30764;DHT22;17497;51.476;7.770;2023-04-06T03:37:37;2.20;99.90
30764;DHT22;17497;51.476;7.770;2023-04-06T03:40:04;2.20;99.90
30764;DHT22;17497;51.476;7.770;2023-04-06T03:42:31;2.10;99.90
30764;DHT22;17497;51.476;7.770;2023-04-06T03:44:58;2.20;99.90
30764;DHT22;17497;51.476;7.770;2023-04-06T03:47:25;2.20;99.90
30764;DHT22;17497;51.476;7.770;2023-04-06T03:49:52;2.20;99.90
30764;DHT22;17497;51.476;7.770;2023-04-06T03:52:19;2.20;99.90
30764;DHT22;17497;51.476;7.770;2023-04-06T03:54:45;2.20;99.90
30764;DHT22;17497;51.476;7.770;2023-04-06T03:57:12;2.30;99.90
30764;DHT22;17497;51.476;7.770;2023-04-06T03:59:38;2.40;99.90
30764;DHT22;17497;51.476;7.770;2023-04-06T04:02:05;2.40;99.90
30764;DHT22;17497;51.476;7.770;2023-04-06T04:04:32;2.40;99.90
30764;DHT22;17497;51.476;7.770;2023-04-06T04:06:59;2.40;99.90
30764;DHT22;17497;51.476;7.770;2023-04-06T04:09:26;2.40;99.90
30764;DHT22;17497;51.476;7.770;2023-04-06T04:11:55;2.50;99.90
30764;DHT22;17497;51.476;7.770;2023-04-06T04:14:22;2.50;99.90
30764;DHT22;17497;51.476;7.770;2023-04-06T04:16:49;2.50;99.90
30764;DHT22;17497;51.476;7.770;2023-04-06T04:19:15;2.50;99.90
30764;DHT22;17497;51.476;7.770;2023-04-06T04:21:44;2.50;99.90
30764;DHT22;17497;51.476;7.770;2023-04-06T04:24:11;2.50;99.90
30764;DHT22;17497;51.476;7.770;2023-04-06T04:26:38;2.40;99.90
30764;DHT22;17497;51.476;7.770;2023-04-06T04:29:05;2.40;99.90
30764;DHT22;17497;51.476;7.770;2023-04-06T04:31:32;2.40;99.90
30764;DHT22;17497;51.476;7.770;2023-04-06T04:33:59;2.40;99.90
30764;DHT22;17497;51.476;7.770;2023-04-06T04:36:26;2.40;99.90
30764;DHT22;17497;51.476;7.770;2023-04-06T04:38:52;2.30;99.90
30764;DHT22;17497;51.476;7.770;2023-04-06T04:41:19;2.40;99.90
30764;DHT22;17497;51.476;7.770;2023-04-06T04:43:46;2.30;99.90
30764;DHT22;17497;51.476;7.770;2023-04-06T04:46:12;2.30;99.90
30764;DHT22;17497;51.476;7.770;2023-04-06T04:48:39;2.30;99.90
30764;DHT22;17497;51.476;7.770;2023-04-06T04:51:06;2.30;99.90
30764;DHT22;17497;51.476;7.770;2023-04-06T04:53:33;2.30;99.90
30764;DHT22;17497;51.476;7.770;2023-04-06T04:55:59;2.30;99.90
30764;DHT22;17497;51.476;7.770;2023-04-06T04:58:26;2.20;99.90
30764;DHT22;17497;51.476;7.770;2023-04-06T05:00:53;2.20;99.90
30764;DHT22;17497;51.476;7.770;2023-04-06T05:03:23;2.10;99.90
30764;DHT22;17497;51.476;7.770;2023-04-06T05:05:50;2.10;99.90
30764;DHT22;17497;51.476;7.770;2023-04-06T05:08:17;2.10;99.90
30764;DHT22;17497;51.476;7.770;2023-04-06T05:10:44;2.10;99.90
30764;DHT22;17497;51.476;7.770;2023-04-06T05:13:14;2.20;99.90
30764;DHT22;17497;51.476;7.770;2023-04-06T05:15:41;2.20;99.90
30764;DHT22;17497;51.476;7.770;2023-04-06T05:18:08;2.20;99.90
30764;DHT22;17497;51.476;7.770;2023-04-06T05:20:35;2.20;99.90
30764;DHT22;17497;51.476;7.770;2023-04-06T05:23:02;2.20;99.90
30764;DHT22;17497;51.476;7.770;2023-04-06T05:25:29;2.20;99.90
30764;DHT22;17497;51.476;7.770;2023-04-06T05:27:55;2.20;99.90
30764;DHT22;17497;51.476;7.770;2023-04-06T05:30:22;2.30;99.90
30764;DHT22;17497;51.476;7.770;2023-04-06T05:32:49;2.30;99.90
30764;DHT22;17497;51.476;7.770;2023-04-06T05:35:16;2.30;99.90
30764;DHT22;17497;51.476;7.770;2023-04-06T05:37:43;2.30;99.90
30764;DHT22;17497;51.476;7.770;2023-04-06T05:40:10;2.40;99.90
30764;DHT22;17497;51.476;7.770;2023-04-06T05:42:40;2.40;99.90
30764;DHT22;17497;51.476;7.770;2023-04-06T05:45:09;2.50;99.90
30764;DHT22;17497;51.476;7.770;2023-04-06T05:47:37;2.50;99.90
30764;DHT22;17497;51.476;7.770;2023-04-06T05:50:04;2.60;99.90
30764;DHT22;17497;51.476;7.770;2023-04-06T05:52:30;2.70;99.90
30764;DHT22;17497;51.476;7.770;2023-04-06T05:54:57;2.70;99.90
30764;DHT22;17497;51.476;7.770;2023-04-06T05:57:24;2.70;99.90
30764;DHT22;17497;51.476;7.770;2023-04-06T05:59:50;2.70;99.90
30764;DHT22;17497;51.476;7.770;2023-04-06T06:02:17;2.80;99.90
30764;DHT22;17497;51.476;7.770;2023-04-06T11:33:37;13.50;72.40
30764;DHT22;17497;51.476;7.770;2023-04-06T11:36:05;13.50;69.10
30764;DHT22;17497;51.476;7.770;2023-04-06T11:38:32;13.10;70.40
30764;DHT22;17497;51.476;7.770;2023-04-06T11:41:00;13.50;69.90
30764;DHT22;17497;51.476;7.770;2023-04-06T11:43:30;13.80;71.30
30764;DHT22;17497;51.476;7.770;2023-04-06T11:46:00;14.40;69.10
30764;DHT22;17497;51.476;7.770;2023-04-06T11:48:29;14.80;67.00
30764;DHT22;17497;51.476;7.770;2023-04-06T11:50:56;14.70;65.60
30764;DHT22;17497;51.476;7.770;2023-04-06T11:53:24;14.50;64.00
30764;DHT22;17497;51.476;7.770;2023-04-06T11:55:51;14.60;65.60
30764;DHT22;17497;51.476;7.770;2023-04-06T11:58:18;14.80;64.10
30764;DHT22;17497;51.476;7.770;2023-04-06T12:00:45;15.20;59.70
30764;DHT22;17497;51.476;7.770;2023-04-06T12:03:13;15.70;58.60
30764;DHT22;17497;51.476;7.770;2023-04-06T12:05:40;15.90;57.80
30764;DHT22;17497;51.476;7.770;2023-04-06T12:08:07;16.10;60.60
30764;DHT22;17497;51.476;7.770;2023-04-06T12:10:34;16.60;61.60
30764;DHT22;17497;51.476;7.770;2023-04-06T12:13:01;17.00;59.40
30764;DHT22;17497;51.476;7.770;2023-04-06T12:15:27;16.80;59.40
30764;DHT22;17497;51.476;7.770;2023-04-06T12:17:54;17.10;60.10
30764;DHT22;17497;51.476;7.770;2023-04-06T12:20:21;16.90;57.40
30764;DHT22;17497;51.476;7.770;2023-04-06T12:22:52;16.10;60.40
30764;DHT22;17497;51.476;7.770;2023-04-06T12:25:19;15.00;61.40
30764;DHT22;17497;51.476;7.770;2023-04-06T12:27:47;14.60;64.40
30764;DHT22;17497;51.476;7.770;2023-04-06T12:30:14;14.70;65.50
30764;DHT22;17497;51.476;7.770;2023-04-06T12:32:41;14.60;66.10
30764;DHT22;17497;51.476;7.770;2023-04-06T12:35:08;15.00;66.20
30764;DHT22;17497;51.476;7.770;2023-04-06T12:37:35;15.70;69.50
30764;DHT22;17497;51.476;7.770;2023-04-06T12:40:03;15.50;66.00
30764;DHT22;17497;51.476;7.770;2023-04-06T12:42:32;16.10;63.00
30764;DHT22;17497;51.476;7.770;2023-04-06T12:44:59;16.10;62.80
30764;DHT22;17497;51.476;7.770;2023-04-06T12:47:26;16.30;61.10
30764;DHT22;17497;51.476;7.770;2023-04-06T12:49:53;16.20;62.90
30764;DHT22;17497;51.476;7.770;2023-04-06T12:52:21;16.30;62.20
30764;DHT22;17497;51.476;7.770;2023-04-06T12:54:48;17.00;59.00
30764;DHT22;17497;51.476;7.770;2023-04-06T12:57:16;16.70;59.20
30764;DHT22;17497;51.476;7.770;2023-04-06T12:59:43;15.70;61.00
30764;DHT22;17497;51.476;7.770;2023-04-06T13:02:11;15.20;64.70
30764;DHT22;17497;51.476;7.770;2023-04-06T13:04:38;15.20;63.60
30764;DHT22;17497;51.476;7.770;2023-04-06T13:07:05;15.00;64.30
30764;DHT22;17497;51.476;7.770;2023-04-06T13:09:32;15.30;66.50
30764;DHT22;17497;51.476;7.770;2023-04-06T13:11:58;15.60;63.00
30764;DHT22;17497;51.476;7.770;2023-04-06T13:14:25;16.10;61.30
30764;DHT22;17497;51.476;7.770;2023-04-06T13:16:52;15.50;64.80
30764;DHT22;17497;51.476;7.770;2023-04-06T13:19:20;15.10;65.00
30764;DHT22;17497;51.476;7.770;2023-04-06T13:21:50;15.10;66.60
30764;DHT22;17497;51.476;7.770;2023-04-06T13:24:17;15.00;66.80
30764;DHT22;17497;51.476;7.770;2023-04-06T13:26:44;14.90;64.00
30764;DHT22;17497;51.476;7.770;2023-04-06T13:29:11;14.90;64.80
30764;DHT22;17497;51.476;7.770;2023-04-06T13:31:37;15.50;63.80
30764;DHT22;17497;51.476;7.770;2023-04-06T13:34:05;15.90;62.70
30764;DHT22;17497;51.476;7.770;2023-04-06T13:36:32;15.40;64.20
30764;DHT22;17497;51.476;7.770;2023-04-06T13:38:58;15.40;66.40
30764;DHT22;17497;51.476;7.770;2023-04-06T13:41:25;15.70;65.30
30764;DHT22;17497;51.476;7.770;2023-04-06T13:43:52;15.70;67.80
30764;DHT22;17497;51.476;7.770;2023-04-06T13:46:19;15.70;67.90
30764;DHT22;17497;51.476;7.770;2023-04-06T13:48:46;15.90;65.70
30764;DHT22;17497;51.476;7.770;2023-04-06T13:51:13;15.30;66.80
30764;DHT22;17497;51.476;7.770;2023-04-06T13:53:41;15.30;67.80
30764;DHT22;17497;51.476;7.770;2023-04-06T13:56:08;15.40;67.50
30764;DHT22;17497;51.476;7.770;2023-04-06T13:58:34;15.30;72.00
30764;DHT22;17497;51.476;7.770;2023-04-06T14:01:03;15.30;69.40
30764;DHT22;17497;51.476;7.770;2023-04-06T14:03:30;15.40;68.00
30764;DHT22;17497;51.476;7.770;2023-04-06T14:05:57;15.30;68.00
30764;DHT22;17497;51.476;7.770;2023-04-06T14:08:30;14.90;69.90
30764;DHT22;17497;51.476;7.770;2023-04-06T14:10:57;14.60;70.60
30764;DHT22;17497;51.476;7.770;2023-04-06T14:13:23;14.00;73.90
30764;DHT22;17497;51.476;7.770;2023-04-06T14:15:52;13.70;75.90
30764;DHT22;17497;51.476;7.770;2023-04-06T14:18:19;13.80;75.10
30764;DHT22;17497;51.476;7.770;2023-04-06T14:20:46;13.80;75.40
30764;DHT22;17497;51.476;7.770;2023-04-06T14:23:19;13.60;73.20
30764;DHT22;17497;51.476;7.770;2023-04-06T14:25:47;13.50;73.50
30764;DHT22;17497;51.476;7.770;2023-04-06T14:28:14;13.50;73.10
30764;DHT22;17497;51.476;7.770;2023-04-06T14:30:43;13.60;73.20
30764;DHT22;17497;51.476;7.770;2023-04-06T14:33:10;13.80;73.80
30764;DHT22;17497;51.476;7.770;2023-04-06T14:35:38;13.80;76.90
30764;DHT22;17497;51.476;7.770;2023-04-06T14:38:04;13.80;74.30
30764;DHT22;17497;51.476;7.770;2023-04-06T14:40:34;13.60;77.30
30764;DHT22;17497;51.476;7.770;2023-04-06T14:43:00;13.40;75.40
30764;DHT22;17497;51.476;7.770;2023-04-06T14:45:27;13.20;75.20
30764;DHT22;17497;51.476;7.770;2023-04-06T14:47:54;13.20;77.30
30764;DHT22;17497;51.476;7.770;2023-04-06T14:50:21;13.30;77.10
30764;DHT22;17497;51.476;7.770;2023-04-06T14:52:48;13.50;74.70
30764;DHT22;17497;51.476;7.770;2023-04-06T14:55:14;13.40;73.50
30764;DHT22;17497;51.476;7.770;2023-04-06T14:57:42;13.60;75.40
30764;DHT22;17497;51.476;7.770;2023-04-06T15:00:08;13.30;76.80
30764;DHT22;17497;51.476;7.770;2023-04-06T15:02:36;13.00;77.20
30764;DHT22;17497;51.476;7.770;2023-04-06T15:05:03;13.10;78.00
30764;DHT22;17497;51.476;7.770;2023-04-06T15:07:31;12.80;77.70
30764;DHT22;17497;51.476;7.770;2023-04-06T15:09:58;12.70;78.00
30764;DHT22;17497;51.476;7.770;2023-04-06T15:12:25;12.90;79.10
30764;DHT22;17497;51.476;7.770;2023-04-06T15:14:52;13.10;77.10
30764;DHT22;17497;51.476;7.770;2023-04-06T15:17:19;13.10;77.80
30764;DHT22;17497;51.476;7.770;2023-04-06T15:19:45;12.90;79.00
30764;DHT22;17497;51.476;7.770;2023-04-06T15:22:12;13.00;79.40
30764;DHT22;17497;51.476;7.770;2023-04-06T15:24:39;12.90;79.10
30764;DHT22;17497;51.476;7.770;2023-04-06T15:27:06;13.10;79.70
30764;DHT22;17497;51.476;7.770;2023-04-06T15:29:33;13.10;77.40
30764;DHT22;17497;51.476;7.770;2023-04-06T15:32:00;13.00;80.20
30764;DHT22;17497;51.476;7.770;2023-04-06T15:34:30;12.90;78.80
30764;DHT22;17497;51.476;7.770;2023-04-06T15:36:59;13.00;80.00
30764;DHT22;17497;51.476;7.770;2023-04-06T15:39:27;13.00;80.90
30764;DHT22;17497;51.476;7.770;2023-04-06T15:41:54;12.90;82.30
30764;DHT22;17497;51.476;7.770;2023-04-06T15:44:24;12.70;83.10
30764;DHT22;17497;51.476;7.770;2023-04-06T15:46:51;12.70;80.80
30764;DHT22;17497;51.476;7.770;2023-04-06T15:49:19;12.60;83.40
30764;DHT22;17497;51.476;7.770;2023-04-06T15:51:49;12.70;82.10
30764;DHT22;17497;51.476;7.770;2023-04-06T15:54:16;12.70;83.60
30764;DHT22;17497;51.476;7.770;2023-04-06T15:56:45;12.50;84.80
30764;DHT22;17497;51.476;7.770;2023-04-06T15:59:14;12.40;86.70
30764;DHT22;17497;51.476;7.770;2023-04-06T16:01:42;12.30;90.10
30764;DHT22;17497;51.476;7.770;2023-04-06T16:04:09;12.20;91.00
30764;DHT22;17497;51.476;7.770;2023-04-06T16:06:37;11.90;92.50
30764;DHT22;17497;51.476;7.770;2023-04-06T16:09:03;11.90;92.80
30764;DHT22;17497;51.476;7.770;2023-04-06T16:11:32;11.80;93.40
30764;DHT22;17497;51.476;7.770;2023-04-06T16:13:59;11.80;94.60
30764;DHT22;17497;51.476;7.770;2023-04-06T16:16:26;11.70;94.60
30764;DHT22;17497;51.476;7.770;2023-04-06T16:18:53;11.70;95.50
30764;DHT22;17497;51.476;7.770;2023-04-06T16:21:20;11.50;96.80
30764;DHT22;17497;51.476;7.770;2023-04-06T16:23:47;11.30;96.40
30764;DHT22;17497;51.476;7.770;2023-04-06T16:26:15;11.30;97.80
30764;DHT22;17497;51.476;7.770;2023-04-06T16:28:44;11.20;97.70
30764;DHT22;17497;51.476;7.770;2023-04-06T16:33:44;11.20;97.90
30764;DHT22;17497;51.476;7.770;2023-04-06T16:36:11;11.00;98.60
30764;DHT22;17497;51.476;7.770;2023-04-06T16:38:38;11.00;99.20
30764;DHT22;17497;51.476;7.770;2023-04-06T16:41:05;11.00;99.60
30764;DHT22;17497;51.476;7.770;2023-04-06T16:43:32;11.00;99.70
30764;DHT22;17497;51.476;7.770;2023-04-06T16:45:58;10.90;99.90
30764;DHT22;17497;51.476;7.770;2023-04-06T16:48:26;10.70;99.90
30764;DHT22;17497;51.476;7.770;2023-04-06T16:50:52;10.70;99.90
30764;DHT22;17497;51.476;7.770;2023-04-06T16:53:19;10.60;99.90
30764;DHT22;17497;51.476;7.770;2023-04-06T16:55:46;10.70;99.90
30764;DHT22;17497;51.476;7.770;2023-04-06T16:58:13;10.50;99.90
30764;DHT22;17497;51.476;7.770;2023-04-06T17:00:39;10.60;99.90
30764;DHT22;17497;51.476;7.770;2023-04-06T17:03:06;10.30;99.90
30764;DHT22;17497;51.476;7.770;2023-04-06T17:05:33;10.40;99.90
30764;DHT22;17497;51.476;7.770;2023-04-06T17:08:01;10.40;99.90
30764;DHT22;17497;51.476;7.770;2023-04-06T17:10:28;10.40;99.90
30764;DHT22;17497;51.476;7.770;2023-04-06T17:13:02;10.30;99.90
30764;DHT22;17497;51.476;7.770;2023-04-06T17:15:29;10.10;99.90
30764;DHT22;17497;51.476;7.770;2023-04-06T17:17:57;10.10;99.90
30764;DHT22;17497;51.476;7.770;2023-04-06T17:20:24;10.00;99.90
30764;DHT22;17497;51.476;7.770;2023-04-06T17:22:51;9.90;99.90
30764;DHT22;17497;51.476;7.770;2023-04-06T17:25:19;9.70;99.90
30764;DHT22;17497;51.476;7.770;2023-04-06T17:27:46;9.60;99.90
30764;DHT22;17497;51.476;7.770;2023-04-06T17:30:14;9.50;99.90
30764;DHT22;17497;51.476;7.770;2023-04-06T17:32:43;9.50;99.90
30764;DHT22;17497;51.476;7.770;2023-04-06T17:35:11;9.40;99.90
30764;DHT22;17497;51.476;7.770;2023-04-06T17:37:38;9.30;99.90
30764;DHT22;17497;51.476;7.770;2023-04-06T17:40:06;9.20;99.90
30764;DHT22;17497;51.476;7.770;2023-04-06T17:42:33;9.10;99.90
30764;DHT22;17497;51.476;7.770;2023-04-06T17:45:00;8.90;99.90
30764;DHT22;17497;51.476;7.770;2023-04-06T17:47:27;8.70;99.90
30764;DHT22;17497;51.476;7.770;2023-04-06T17:49:57;8.60;99.90
30764;DHT22;17497;51.476;7.770;2023-04-06T17:52:25;8.40;99.90
30764;DHT22;17497;51.476;7.770;2023-04-06T17:54:52;8.40;99.90
30764;DHT22;17497;51.476;7.770;2023-04-06T17:57:19;8.30;99.90
30764;DHT22;17497;51.476;7.770;2023-04-06T17:59:47;8.20;99.90
30764;DHT22;17497;51.476;7.770;2023-04-06T18:02:13;8.20;99.90
30764;DHT22;17497;51.476;7.770;2023-04-06T18:04:41;8.20;99.90
30764;DHT22;17497;51.476;7.770;2023-04-06T18:07:09;8.10;99.90
30764;DHT22;17497;51.476;7.770;2023-04-06T18:09:40;8.00;99.90
30764;DHT22;17497;51.476;7.770;2023-04-06T18:12:07;7.90;99.90
30764;DHT22;17497;51.476;7.770;2023-04-06T18:14:34;7.90;99.90
30764;DHT22;17497;51.476;7.770;2023-04-06T18:17:01;7.80;99.90
30764;DHT22;17497;51.476;7.770;2023-04-06T18:19:29;7.80;99.90
30764;DHT22;17497;51.476;7.770;2023-04-06T18:21:56;7.80;99.90
30764;DHT22;17497;51.476;7.770;2023-04-06T18:24:23;7.70;99.90
30764;DHT22;17497;51.476;7.770;2023-04-06T18:27:08;7.70;99.90
30764;DHT22;17497;51.476;7.770;2023-04-06T18:29:35;7.70;99.90
30764;DHT22;17497;51.476;7.770;2023-04-06T18:32:02;7.70;99.90
30764;DHT22;17497;51.476;7.770;2023-04-06T18:34:29;7.70;99.90
30764;DHT22;17497;51.476;7.770;2023-04-06T18:36:56;7.70;99.90
30764;DHT22;17497;51.476;7.770;2023-04-06T18:39:23;7.60;99.90
30764;DHT22;17497;51.476;7.770;2023-04-06T18:41:50;7.60;99.90
30764;DHT22;17497;51.476;7.770;2023-04-06T18:44:16;7.50;99.90
30764;DHT22;17497;51.476;7.770;2023-04-06T18:46:43;7.50;99.90
30764;DHT22;17497;51.476;7.770;2023-04-06T18:49:11;7.40;99.90
30764;DHT22;17497;51.476;7.770;2023-04-06T18:51:38;7.40;99.90
30764;DHT22;17497;51.476;7.770;2023-04-06T18:54:07;7.40;99.90
30764;DHT22;17497;51.476;7.770;2023-04-06T18:56:34;7.40;99.90
30764;DHT22;17497;51.476;7.770;2023-04-06T18:59:02;7.40;99.90
30764;DHT22;17497;51.476;7.770;2023-04-06T19:01:29;7.30;99.90
30764;DHT22;17497;51.476;7.770;2023-04-06T19:03:56;7.30;99.90
30764;DHT22;17497;51.476;7.770;2023-04-06T19:06:24;7.30;99.90
30764;DHT22;17497;51.476;7.770;2023-04-06T19:08:54;7.30;99.90
30764;DHT22;17497;51.476;7.770;2023-04-06T19:11:21;7.30;99.90
30764;DHT22;17497;51.476;7.770;2023-04-06T19:13:51;7.30;99.90
30764;DHT22;17497;51.476;7.770;2023-04-06T19:16:19;7.30;99.90
30764;DHT22;17497;51.476;7.770;2023-04-06T19:18:46;7.30;99.90
30764;DHT22;17497;51.476;7.770;2023-04-06T19:21:19;7.30;99.90
30764;DHT22;17497;51.476;7.770;2023-04-06T19:23:47;7.30;99.90
30764;DHT22;17497;51.476;7.770;2023-04-06T19:26:15;7.40;99.90
30764;DHT22;17497;51.476;7.770;2023-04-06T19:28:42;7.40;99.90
30764;DHT22;17497;51.476;7.770;2023-04-06T19:31:09;7.40;99.90
30764;DHT22;17497;51.476;7.770;2023-04-06T19:33:36;7.40;99.90
30764;DHT22;17497;51.476;7.770;2023-04-06T19:36:04;7.30;99.90
30764;DHT22;17497;51.476;7.770;2023-04-06T19:38:31;7.30;99.90
30764;DHT22;17497;51.476;7.770;2023-04-06T19:40:59;7.30;99.90
30764;DHT22;17497;51.476;7.770;2023-04-06T19:43:27;7.20;99.90
30764;DHT22;17497;51.476;7.770;2023-04-06T19:45:54;7.20;99.90
30764;DHT22;17497;51.476;7.770;2023-04-06T19:48:20;7.20;99.90
30764;DHT22;17497;51.476;7.770;2023-04-06T19:50:47;7.30;99.90
30764;DHT22;17497;51.476;7.770;2023-04-06T19:53:16;7.30;99.90
30764;DHT22;17497;51.476;7.770;2023-04-06T19:55:42;7.30;99.90
30764;DHT22;17497;51.476;7.770;2023-04-06T19:58:10;7.30;99.90
30764;DHT22;17497;51.476;7.770;2023-04-06T20:00:36;7.30;99.90
30764;DHT22;17497;51.476;7.770;2023-04-06T20:03:03;7.30;99.90
30764;DHT22;17497;51.476;7.770;2023-04-06T20:05:30;7.30;99.90
30764;DHT22;17497;51.476;7.770;2023-04-06T20:07:57;7.30;99.90
30764;DHT22;17497;51.476;7.770;2023-04-06T20:10:24;7.30;99.90
30764;DHT22;17497;51.476;7.770;2023-04-06T20:12:50;7.30;99.90
30764;DHT22;17497;51.476;7.770;2023-04-06T20:15:17;7.30;99.90
30764;DHT22;17497;51.476;7.770;2023-04-06T20:17:44;7.30;99.90
30764;DHT22;17497;51.476;7.770;2023-04-06T20:20:12;7.30;99.90
30764;DHT22;17497;51.476;7.770;2023-04-06T20:22:40;7.40;99.90
30764;DHT22;17497;51.476;7.770;2023-04-06T20:25:06;7.40;99.90
30764;DHT22;17497;51.476;7.770;2023-04-06T20:27:35;7.30;99.90
30764;DHT22;17497;51.476;7.770;2023-04-06T20:30:01;7.30;99.90
30764;DHT22;17497;51.476;7.770;2023-04-06T20:32:28;7.20;99.90
30764;DHT22;17497;51.476;7.770;2023-04-06T20:34:55;7.20;99.90
30764;DHT22;17497;51.476;7.770;2023-04-06T20:37:22;7.20;99.90
30764;DHT22;17497;51.476;7.770;2023-04-06T20:39:51;7.20;99.90
30764;DHT22;17497;51.476;7.770;2023-04-06T20:42:18;7.10;99.90
30764;DHT22;17497;51.476;7.770;2023-04-06T20:44:46;7.10;99.90
30764;DHT22;17497;51.476;7.770;2023-04-06T20:47:14;7.10;99.90
30764;DHT22;17497;51.476;7.770;2023-04-06T20:49:41;7.10;99.90
30764;DHT22;17497;51.476;7.770;2023-04-06T20:52:09;7.00;99.90
30764;DHT22;17497;51.476;7.770;2023-04-06T20:54:36;7.00;99.90
30764;DHT22;17497;51.476;7.770;2023-04-06T20:57:02;7.00;99.90
30764;DHT22;17497;51.476;7.770;2023-04-06T20:59:29;6.90;99.90
30764;DHT22;17497;51.476;7.770;2023-04-06T21:01:56;6.90;99.90
30764;DHT22;17497;51.476;7.770;2023-04-06T21:04:23;6.80;99.90
30764;DHT22;17497;51.476;7.770;2023-04-06T21:06:49;6.80;99.90
30764;DHT22;17497;51.476;7.770;2023-04-06T21:09:16;6.80;99.90
30764;DHT22;17497;51.476;7.770;2023-04-06T21:11:45;6.80;99.90